createdAt,value
2022-08-26T00:01:53.844Z,99902.00
2022-08-26T00:04:22.326Z,99902.13
2022-08-26T00:06:49.463Z,99894.91
2022-08-26T00:09:16.868Z,99896.13
2022-08-26T00:11:46.328Z,99902.31
2022-08-26T00:14:15.249Z,99914.16
2022-08-26T00:16:48.005Z,99905.16
2022-08-26T00:19:20.668Z,99904.72
2022-08-26T00:21:50.107Z,99902.53
2022-08-26T00:24:19.408Z,99904.72
2022-08-26T00:26:47.027Z,99895.31
2022-08-26T00:29:14.215Z,99902.91
2022-08-26T00:31:42.673Z,99884.41
2022-08-26T00:34:12.526Z,99899.47
2022-08-26T00:36:41.099Z,99900.88
2022-08-26T00:39:08.695Z,99901.75
2022-08-26T00:41:39.198Z,99896.34
2022-08-26T00:44:07.165Z,99890.03
2022-08-26T00:46:37.314Z,99895.88
2022-08-26T00:49:16.058Z,99898.22
2022-08-26T00:51:49.514Z,99891.25
2022-08-26T00:54:19.535Z,99885.72
2022-08-26T00:56:57.826Z,99887.19
2022-08-26T00:59:30.188Z,99886.53
2022-08-26T01:02:02.860Z,99889.25
2022-08-26T01:04:33.640Z,99885.59
2022-08-26T01:07:01.531Z,99894.59
2022-08-26T01:09:28.659Z,99896.81
2022-08-26T01:11:59.200Z,99894.78
2022-08-26T01:14:30.117Z,99892.44
2022-08-26T01:16:57.185Z,99900.16
2022-08-26T01:19:30.106Z,99890.91
2022-08-26T01:22:00.551Z,99885.84
2022-08-26T01:24:29.671Z,99882.47
2022-08-26T01:27:05.278Z,99877.53
2022-08-26T01:29:35.309Z,99873.72
2022-08-26T01:32:05.004Z,99879.03
2022-08-26T01:34:36.214Z,99876.81
2022-08-26T01:37:23.667Z,99876.47
2022-08-26T01:39:53.670Z,99874.31
2022-08-26T01:42:23.909Z,99874.16
2022-08-26T01:45:07.390Z,99868.41
2022-08-26T01:47:36.721Z,99868.91
2022-08-26T01:50:10.950Z,99862.81
2022-08-26T01:52:41.800Z,99854.56
2022-08-26T01:55:11.511Z,99851.94
2022-08-26T01:57:38.662Z,99857.31
2022-08-26T02:00:08.874Z,99857.47
2022-08-26T02:02:43.916Z,99860.59
2022-08-26T02:05:17.026Z,99860.78
2022-08-26T02:07:45.279Z,99851.41
2022-08-26T02:10:15.065Z,99849.25
2022-08-26T02:12:42.770Z,99852.94
2022-08-26T02:15:12.534Z,99849.91
2022-08-26T02:17:45.796Z,99858.47
2022-08-26T02:20:17.719Z,99849.56
2022-08-26T02:22:45.570Z,99859.16
2022-08-26T02:25:18.249Z,99860.38
2022-08-26T02:27:47.230Z,99858.50
2022-08-26T02:30:24.574Z,99854.44
2022-08-26T02:32:53.318Z,99860.34
2022-08-26T02:35:22.945Z,99856.38
2022-08-26T02:37:52.087Z,99856.28
2022-08-26T02:40:31.803Z,99857.38
2022-08-26T02:42:59.002Z,99865.84
2022-08-26T02:45:28.661Z,99870.16
2022-08-26T02:47:58.303Z,99868.66
2022-08-26T02:50:27.172Z,99861.13
2022-08-26T02:52:54.189Z,99859.06
2022-08-26T02:55:21.268Z,99859.78
2022-08-26T02:57:52.499Z,99851.31
2022-08-26T03:00:19.624Z,99860.88
2022-08-26T03:02:46.621Z,99858.94
2022-08-26T03:05:13.757Z,99869.81
2022-08-26T03:07:42.891Z,99865.28
2022-08-26T03:10:12.719Z,99861.16
2022-08-26T03:12:39.993Z,99870.84
2022-08-26T03:15:17.687Z,99863.53
2022-08-26T03:17:46.986Z,99869.47
2022-08-26T03:20:15.549Z,99866.50
2022-08-26T03:22:45.086Z,99876.66
2022-08-26T03:25:14.860Z,99857.66
2022-08-26T03:27:43.096Z,99861.31
2022-08-26T03:30:30.354Z,99863.31
2022-08-26T03:32:57.547Z,99870.97
2022-08-26T03:35:25.919Z,99862.19
2022-08-26T03:37:53.977Z,99873.22
2022-08-26T03:40:21.763Z,99866.28
2022-08-26T03:42:49.841Z,99859.84
2022-08-26T03:45:18.412Z,99864.09
2022-08-26T03:47:47.629Z,99873.94
2022-08-26T03:50:23.030Z,99877.44
2022-08-26T03:52:52.857Z,99882.50
2022-08-26T03:55:21.142Z,99879.56
2022-08-26T03:57:51.624Z,99876.28
2022-08-26T04:00:19.370Z,99873.44
2022-08-26T04:02:51.265Z,99868.03
2022-08-26T04:05:22.832Z,99865.22
2022-08-26T04:07:50.523Z,99864.38
2022-08-26T04:10:28.966Z,99868.28
2022-08-26T04:12:58.930Z,99872.13
2022-08-26T04:15:32.888Z,99877.94
2022-08-26T04:18:00.839Z,99880.78
2022-08-26T04:20:28.634Z,99880.78
2022-08-26T04:22:55.574Z,99884.22
2022-08-26T04:25:22.752Z,99878.06
2022-08-26T04:27:51.279Z,99874.91
2022-08-26T04:30:18.517Z,99878.06
2022-08-26T04:32:45.763Z,99878.16
2022-08-26T04:35:12.671Z,99885.88
2022-08-26T04:37:39.629Z,99887.31
2022-08-26T04:40:11.352Z,99900.59
2022-08-26T04:42:38.348Z,99897.63
2022-08-26T04:45:10.040Z,99900.25
2022-08-26T04:47:38.041Z,99894.53
2022-08-26T04:50:07.478Z,99896.75
2022-08-26T04:52:36.357Z,99900.09
2022-08-26T04:55:06.572Z,99898.25
2022-08-26T04:57:35.372Z,99904.81
2022-08-26T05:00:07.917Z,99897.34
2022-08-26T05:02:34.855Z,99893.03
2022-08-26T05:05:02.223Z,99900.50
2022-08-26T05:07:29.229Z,99894.34
2022-08-26T05:09:58.892Z,99900.03
2022-08-26T05:12:25.864Z,99901.84
2022-08-26T05:14:53.508Z,99895.97
2022-08-26T05:17:20.787Z,99904.03
2022-08-26T05:19:48.145Z,99903.06
2022-08-26T05:22:17.515Z,99903.44
2022-08-26T05:24:46.546Z,99892.53
2022-08-26T05:27:14.330Z,99896.94
2022-08-26T05:29:41.536Z,99892.69
2022-08-26T05:32:08.466Z,99898.09
2022-08-26T05:34:38.376Z,99900.31
2022-08-26T05:37:06.420Z,99897.75
2022-08-26T05:39:33.879Z,99906.56
2022-08-26T05:42:01.368Z,99907.84
2022-08-26T05:44:29.182Z,99917.28
2022-08-26T05:47:16.051Z,99916.59
2022-08-26T05:49:51.457Z,99915.56
2022-08-26T05:52:19.147Z,99919.31
2022-08-26T05:54:46.037Z,99914.44
2022-08-26T05:57:14.708Z,99908.63
2022-08-26T05:59:41.719Z,99908.03
2022-08-26T06:02:08.885Z,99909.19
2022-08-26T06:04:35.802Z,99905.53
2022-08-26T06:07:03.574Z,99903.81
2022-08-26T06:09:33.083Z,99907.41
2022-08-26T06:12:01.952Z,99910.31
2022-08-26T06:14:29.072Z,99920.41
2022-08-26T06:16:56.624Z,99923.66
2022-08-26T06:19:23.832Z,99917.28
2022-08-26T06:21:54.729Z,99922.88
2022-08-26T06:24:40.759Z,99916.38
2022-08-26T06:27:11.449Z,99923.59
2022-08-26T06:29:39.733Z,99932.75
2022-08-26T06:32:06.981Z,99939.16
2022-08-26T06:34:36.219Z,99945.13
2022-08-26T06:37:03.777Z,99945.53
2022-08-26T06:39:31.838Z,99950.72
2022-08-26T06:42:00.295Z,99951.72
2022-08-26T06:44:27.855Z,99947.31
2022-08-26T06:46:55.111Z,99949.97
2022-08-26T06:49:26.616Z,99953.72
2022-08-26T06:51:58.691Z,99957.19
2022-08-26T06:54:26.875Z,99969.97
2022-08-26T06:56:56.003Z,99966.00
2022-08-26T06:59:23.409Z,99970.97
2022-08-26T07:01:50.455Z,99965.94
2022-08-26T07:04:21.798Z,99961.44
2022-08-26T07:06:52.723Z,99952.88
2022-08-26T07:09:23.413Z,99963.66
2022-08-26T07:11:51.527Z,99961.72
2022-08-26T07:14:21.411Z,99967.66
2022-08-26T07:16:52.467Z,99964.25
2022-08-26T07:19:31.129Z,99960.06
2022-08-26T07:22:04.152Z,99962.38
2022-08-26T07:24:33.175Z,99964.97
2022-08-26T07:27:05.484Z,99962.75
2022-08-26T07:29:34.166Z,99965.88
2022-08-26T07:32:01.445Z,99971.16
2022-08-26T07:34:29.185Z,99978.75
2022-08-26T07:36:57.164Z,99970.50
2022-08-26T07:39:26.865Z,99980.72
2022-08-26T07:41:54.485Z,99981.03
2022-08-26T07:44:21.653Z,99977.22
2022-08-26T07:46:53.033Z,99977.78
2022-08-26T07:49:24.655Z,99971.72
2022-08-26T07:51:53.463Z,99968.31
2022-08-26T07:54:21.014Z,99976.78
2022-08-26T07:56:54.749Z,99970.91
2022-08-26T07:59:23.492Z,99974.03
2022-08-26T08:01:50.637Z,99964.81
2022-08-26T08:04:21.890Z,99957.53
2022-08-26T08:06:53.987Z,99959.78
2022-08-26T08:09:22.306Z,99953.28
2022-08-26T08:11:50.030Z,99953.31
2022-08-26T08:14:18.798Z,99951.78
2022-08-26T08:16:51.247Z,99956.97
2022-08-26T08:19:23.958Z,99943.06
2022-08-26T08:22:05.251Z,99946.97
2022-08-26T08:24:45.357Z,99956.84
2022-08-26T08:27:18.145Z,99949.34
2022-08-26T08:29:48.498Z,99943.97
2022-08-26T08:32:16.013Z,99946.75
2022-08-26T08:37:15.087Z,99936.69
2022-08-26T08:39:42.279Z,99939.34
2022-08-26T08:42:43.907Z,99938.31
2022-08-26T08:45:16.897Z,99939.81
2022-08-26T08:47:54.595Z,99931.44
2022-08-26T08:50:28.814Z,99936.97
2022-08-26T08:53:13.479Z,99945.47
2022-08-26T08:56:15.305Z,99939.84
2022-08-26T08:58:57.465Z,99944.06
2022-08-26T09:01:45.119Z,99933.22
2022-08-26T09:04:39.799Z,99934.41
2022-08-26T09:07:15.989Z,99931.00
2022-08-26T09:10:06.645Z,99931.75
2022-08-26T09:12:36.287Z,99929.13
2022-08-26T09:15:06.172Z,99936.88
2022-08-26T09:17:43.448Z,99927.09
2022-08-26T09:20:47.880Z,99934.50
2022-08-26T09:23:16.370Z,99932.28
2022-08-26T09:25:56.439Z,99923.34
2022-08-26T09:28:26.296Z,99927.97
2022-08-26T09:31:13.329Z,99918.28
2022-08-26T09:33:41.617Z,99919.81
2022-08-26T09:36:13.244Z,99922.75
2022-08-26T09:38:40.403Z,99919.69
2022-08-26T09:41:24.979Z,99921.16
2022-08-26T09:44:17.171Z,99932.38
2022-08-26T09:46:58.126Z,99927.53
2022-08-26T09:49:29.860Z,99929.34
2022-08-26T09:52:26.746Z,99922.75
2022-08-26T09:55:12.437Z,99931.81
2022-08-26T09:57:51.506Z,99937.84
2022-08-26T10:00:38.588Z,99941.69
2022-08-26T10:03:10.869Z,99939.09
2022-08-26T10:05:43.767Z,99943.44
2022-08-26T10:08:23.111Z,99944.50
2022-08-26T10:10:53.305Z,99940.97
2022-08-26T10:13:42.361Z,99945.47
2022-08-26T10:16:31.210Z,99942.13
2022-08-26T10:19:08.478Z,99943.44
2022-08-26T10:21:42.676Z,99944.53
2022-08-26T10:24:11.634Z,99938.53
2022-08-26T10:26:44.683Z,99941.31
2022-08-26T10:29:34.338Z,99938.97
2022-08-26T10:32:31.211Z,99936.94
2022-08-26T10:34:58.377Z,99933.72
2022-08-26T10:37:35.098Z,99941.56
2022-08-26T10:40:23.318Z,99938.72
2022-08-26T10:43:11.394Z,99935.56
2022-08-26T10:45:50.536Z,99928.84
2022-08-26T10:48:35.339Z,99929.09
2022-08-26T10:51:04.287Z,99927.88
2022-08-26T10:53:38.717Z,99931.25
2022-08-26T10:56:28.554Z,99930.72
2022-08-26T10:59:15.261Z,99926.91
2022-08-26T11:01:50.987Z,99930.72
2022-08-26T11:04:50.777Z,99925.28
2022-08-26T11:07:39.379Z,99926.75
2022-08-26T11:10:14.060Z,99921.75
2022-08-26T11:12:42.211Z,99920.19
2022-08-26T11:15:24.560Z,99921.84
2022-08-26T11:17:51.854Z,99914.13
2022-08-26T11:20:51.302Z,99912.50
2022-08-26T11:23:22.506Z,99911.13
2022-08-26T11:26:01.261Z,99910.72
2022-08-26T11:28:37.041Z,99901.91
2022-08-26T11:31:08.782Z,99906.66
2022-08-26T11:33:54.324Z,99903.03
2022-08-26T11:36:36.289Z,99901.69
2022-08-26T11:39:29.151Z,99900.47
2022-08-26T11:42:01.738Z,99907.13
2022-08-26T11:44:49.513Z,99912.13
2022-08-26T11:47:27.014Z,99905.38
2022-08-26T11:50:19.268Z,99909.28
2022-08-26T11:53:19.229Z,99910.75
2022-08-26T11:55:47.387Z,99901.91
2022-08-26T11:58:15.854Z,99906.53
2022-08-26T12:00:54.779Z,99903.72
2022-08-26T12:03:30.745Z,99891.78
2022-08-26T12:05:58.903Z,99894.22
2022-08-26T12:08:29.194Z,99890.44
2022-08-26T12:11:11.117Z,99891.75
2022-08-26T12:13:39.338Z,99890.63
2022-08-26T12:16:07.700Z,99887.91
2022-08-26T12:18:38.160Z,99888.44
2022-08-26T12:21:16.295Z,99891.06
2022-08-26T12:23:49.953Z,99898.91
2022-08-26T12:26:30.942Z,99880.84
2022-08-26T12:29:20.250Z,99882.53
2022-08-26T12:32:13.314Z,99885.19
2022-08-26T12:34:42.781Z,99885.25
2022-08-26T12:37:12.109Z,99883.31
2022-08-26T12:39:43.243Z,99876.72
2022-08-26T12:42:12.965Z,99885.97
2022-08-26T12:44:53.186Z,99878.69
2022-08-26T12:47:44.172Z,99881.03
2022-08-26T12:50:35.911Z,99872.13
2022-08-26T12:53:17.709Z,99871.53
2022-08-26T12:56:04.658Z,99870.25
2022-08-26T12:58:36.590Z,99876.94
2022-08-26T13:01:06.929Z,99867.50
2022-08-26T13:03:34.069Z,99875.06
2022-08-26T13:06:30.201Z,99875.47
2022-08-26T13:09:06.791Z,99880.22
2022-08-26T13:11:55.930Z,99876.38
2022-08-26T13:14:24.799Z,99875.81
2022-08-26T13:16:53.126Z,99869.66
2022-08-26T13:19:23.009Z,99875.59
2022-08-26T13:21:55.733Z,99863.53
2022-08-26T13:24:38.780Z,99868.66
2022-08-26T13:27:08.326Z,99873.16
2022-08-26T13:29:35.856Z,99871.19
2022-08-26T13:32:05.686Z,99869.38
2022-08-26T13:34:32.897Z,99863.69
2022-08-26T13:36:59.863Z,99865.50
2022-08-26T13:39:27.083Z,99870.38
2022-08-26T13:41:54.514Z,99867.63
2022-08-26T13:44:21.891Z,99872.34
2022-08-26T13:46:48.949Z,99879.78
2022-08-26T13:49:16.051Z,99869.91
2022-08-26T13:51:43.064Z,99867.19
2022-08-26T13:54:10.092Z,99871.75
2022-08-26T13:56:37.592Z,99876.81
2022-08-26T13:59:05.777Z,99864.00
2022-08-26T14:01:35.189Z,99853.50
2022-08-26T14:04:03.171Z,99851.56
2022-08-26T14:06:30.735Z,99852.41
2022-08-26T14:08:58.787Z,99854.31
2022-08-26T14:11:27.049Z,99861.66
2022-08-26T14:13:53.973Z,99853.91
2022-08-26T14:16:27.470Z,99853.22
2022-08-26T14:18:54.831Z,99853.16
2022-08-26T14:21:21.968Z,99857.63
2022-08-26T14:23:49.053Z,99864.16
2022-08-26T14:26:28.160Z,99864.47
2022-08-26T14:28:57.640Z,99869.97
2022-08-26T14:31:27.049Z,99863.47
2022-08-26T14:33:57.570Z,99862.22
2022-08-26T14:36:33.301Z,99862.81
2022-08-26T14:39:04.731Z,99858.38
2022-08-26T14:41:33.860Z,99862.34
2022-08-26T14:44:08.044Z,99862.75
2022-08-26T14:46:42.454Z,99864.66
2022-08-26T14:49:10.650Z,99865.06
2022-08-26T14:51:39.807Z,99876.13
2022-08-26T14:54:14.882Z,99879.59
2022-08-26T14:56:55.973Z,99873.06
2022-08-26T14:59:26.683Z,99881.94
2022-08-26T15:01:54.526Z,99874.47
2022-08-26T15:04:23.315Z,99877.03
2022-08-26T15:06:51.999Z,99878.88
2022-08-26T15:09:19.233Z,99864.47
2022-08-26T15:11:47.834Z,99871.28
2022-08-26T15:14:19.923Z,99880.03
2022-08-26T15:16:49.753Z,99870.97
2022-08-26T15:19:17.220Z,99888.38
2022-08-26T15:21:45.687Z,99880.44
2022-08-26T15:24:14.802Z,99874.69
2022-08-26T15:26:42.800Z,99885.19
2022-08-26T15:29:10.146Z,99885.63
2022-08-26T15:31:37.149Z,99884.53
2022-08-26T15:34:08.542Z,99879.91
2022-08-26T15:36:37.961Z,99891.78
2022-08-26T15:39:06.933Z,99886.03
2022-08-26T15:41:34.948Z,99887.47
2022-08-26T15:44:03.520Z,99885.06
2022-08-26T15:46:32.171Z,99881.88
2022-08-26T15:48:59.562Z,99881.50
2022-08-26T15:51:33.178Z,99880.03
2022-08-26T15:54:03.259Z,99878.34
2022-08-26T15:56:35.185Z,99880.16
2022-08-26T15:59:03.843Z,99887.03
2022-08-26T16:01:32.587Z,99884.03
2022-08-26T16:04:00.185Z,99885.19
2022-08-26T16:06:31.558Z,99897.06
2022-08-26T16:08:58.798Z,99891.47
2022-08-26T16:11:26.352Z,99890.13
2022-08-26T16:13:53.752Z,99886.72
2022-08-26T16:16:21.602Z,99897.97
2022-08-26T16:18:49.670Z,99901.31
2022-08-26T16:21:20.050Z,99903.75
2022-08-26T16:23:47.668Z,99905.84
2022-08-26T16:26:18.625Z,99908.59
2022-08-26T16:28:46.088Z,99915.88
2022-08-26T16:31:13.731Z,99912.59
2022-08-26T16:33:40.844Z,99921.13
2022-08-26T16:36:08.910Z,99919.59
2022-08-26T16:38:37.732Z,99916.31
2022-08-26T16:41:06.063Z,99915.16
2022-08-26T16:43:33.659Z,99915.88
2022-08-26T16:46:00.924Z,99918.88
2022-08-26T16:48:28.111Z,99919.16
2022-08-26T16:50:55.677Z,99918.75
2022-08-26T16:53:23.299Z,99922.16
2022-08-26T16:55:51.354Z,99925.69
2022-08-26T16:58:21.998Z,99926.44
2022-08-26T17:00:49.366Z,99924.00
2022-08-26T17:03:17.079Z,99934.69
2022-08-26T17:05:44.610Z,99943.84
2022-08-26T17:08:12.157Z,99952.09
2022-08-26T17:10:40.146Z,99949.28
2022-08-26T17:13:07.162Z,99940.13
2022-08-26T17:15:34.166Z,99945.53
2022-08-26T17:18:01.121Z,99958.06
2022-08-26T17:20:28.121Z,99962.09
2022-08-26T17:22:56.311Z,99960.66
2022-08-26T17:25:31.710Z,99968.06
2022-08-26T17:27:59.251Z,99968.47
2022-08-26T17:30:27.268Z,99968.56
2022-08-26T17:32:57.059Z,99973.38
2022-08-26T17:35:24.451Z,99971.53
2022-08-26T17:37:51.938Z,99970.91
2022-08-26T17:40:22.890Z,99968.22
2022-08-26T17:42:50.423Z,99971.16
2022-08-26T17:47:51.024Z,99975.31
2022-08-26T17:50:18.636Z,99977.53
2022-08-26T17:52:46.804Z,99973.63
2022-08-26T17:55:15.755Z,99981.94
2022-08-26T17:57:44.476Z,99983.72
2022-08-26T18:00:26.503Z,99990.25
2022-08-26T18:02:55.305Z,99987.75
2022-08-26T18:05:23.231Z,99994.94
2022-08-26T18:07:51.599Z,100002.78
2022-08-26T18:10:20.610Z,99998.78
2022-08-26T18:12:48.377Z,99993.19
2022-08-26T18:15:17.599Z,99998.16
2022-08-26T18:17:45.031Z,100004.44
2022-08-26T18:20:16.884Z,100000.41
2022-08-26T18:22:44.847Z,99999.56
2022-08-26T18:25:12.800Z,100012.22
2022-08-26T18:27:40.428Z,100006.94
2022-08-26T18:30:16.278Z,100009.31
2022-08-26T18:32:43.903Z,100005.94
2022-08-26T18:35:12.072Z,100004.19
2022-08-26T18:37:39.432Z,100000.75
2022-08-26T18:40:10.091Z,100005.81
2022-08-26T18:42:37.547Z,99999.41
2022-08-26T18:45:07.228Z,100005.28
2022-08-26T18:47:34.390Z,99997.59
2022-08-26T18:50:03.846Z,100001.81
2022-08-26T18:52:31.830Z,99997.03
2022-08-26T18:54:59.606Z,100002.00
2022-08-26T18:57:26.515Z,100006.16
2022-08-26T18:59:53.431Z,100005.19
2022-08-26T19:02:20.506Z,100005.56
2022-08-26T19:04:47.507Z,100015.25
2022-08-26T19:07:14.926Z,100015.91
2022-08-26T19:09:41.856Z,100016.81
2022-08-26T19:12:08.953Z,100015.31
2022-08-26T19:14:36.801Z,100008.59
2022-08-26T19:17:04.435Z,100010.94
2022-08-26T19:19:32.141Z,100021.47
2022-08-26T19:21:59.233Z,100016.81
2022-08-26T19:24:27.454Z,100017.53
2022-08-26T19:26:58.383Z,100012.44
2022-08-26T19:29:28.622Z,100013.13
2022-08-26T19:31:55.930Z,100007.22
2022-08-26T19:34:22.900Z,100000.81
2022-08-26T19:36:52.114Z,100000.78
2022-08-26T19:39:19.999Z,100000.50
2022-08-26T19:41:47.324Z,100000.84
2022-08-26T19:44:36.011Z,100002.22
2022-08-26T19:47:03.894Z,100001.50
2022-08-26T19:49:31.639Z,100006.44
2022-08-26T19:51:58.789Z,100003.44
2022-08-26T19:54:25.802Z,100000.56
2022-08-26T19:56:52.919Z,99999.88
2022-08-26T19:59:20.098Z,100001.63
2022-08-26T20:01:47.383Z,99999.28
2022-08-26T20:04:27.941Z,100003.81
2022-08-26T20:06:57.646Z,100002.09
2022-08-26T20:09:26.195Z,99993.13
2022-08-26T20:11:54.071Z,99997.41
2022-08-26T20:14:24.872Z,100002.19
2022-08-26T20:16:51.864Z,99992.00
2022-08-26T20:19:37.778Z,100001.06
2022-08-26T20:22:05.439Z,99984.53
2022-08-26T20:24:32.755Z,100004.28
2022-08-26T20:27:03.269Z,100004.41
2022-08-26T20:29:34.938Z,100010.81
2022-08-26T20:32:02.765Z,100010.09
2022-08-26T20:34:30.222Z,100003.13
2022-08-26T20:36:57.506Z,100008.22
2022-08-26T20:39:24.417Z,100006.81
2022-08-26T20:41:51.456Z,100011.59
2022-08-26T20:44:18.417Z,100005.75
2022-08-26T20:46:45.668Z,100009.69
2022-08-26T20:49:13.479Z,100010.44
2022-08-26T20:51:43.214Z,100017.28
2022-08-26T20:54:12.423Z,100008.09
2022-08-26T20:56:40.213Z,100015.25
2022-08-26T20:59:08.243Z,100018.63
2022-08-26T21:01:37.259Z,100014.22
2022-08-26T21:04:12.869Z,100011.88
2022-08-26T21:06:42.245Z,100006.47
2022-08-26T21:09:14.756Z,100004.09
2022-08-26T21:11:44.709Z,99999.00
2022-08-26T21:14:16.811Z,100002.63
2022-08-26T21:16:46.120Z,100001.41
2022-08-26T21:19:14.855Z,99996.75
2022-08-26T21:21:42.637Z,100001.66
2022-08-26T21:24:09.660Z,100002.44
2022-08-26T21:26:37.179Z,99996.69
2022-08-26T21:29:04.819Z,99988.59
2022-08-26T21:31:32.308Z,99979.91
2022-08-26T21:33:59.844Z,99974.13
2022-08-26T21:36:27.175Z,99977.25
2022-08-26T21:38:58.351Z,99972.22
2022-08-26T21:41:26.452Z,99979.56
2022-08-26T21:43:58.069Z,99975.50
2022-08-26T21:46:27.140Z,99975.00
2022-08-26T21:48:58.029Z,99979.38
2022-08-26T21:51:30.501Z,99969.44
2022-08-26T21:53:59.094Z,99980.13
2022-08-26T21:56:28.662Z,99975.25
2022-08-26T21:58:56.641Z,99972.63
2022-08-26T22:01:26.424Z,99981.91
2022-08-26T22:03:54.568Z,99983.09
2022-08-26T22:06:24.454Z,99986.44
2022-08-26T22:08:52.608Z,99990.28
2022-08-26T22:11:20.416Z,99994.09
2022-08-26T22:13:48.629Z,99987.97
2022-08-26T22:16:15.767Z,99985.09
2022-08-26T22:18:45.119Z,99991.56
2022-08-26T22:21:15.363Z,99996.28
2022-08-26T22:23:42.511Z,99993.13
2022-08-26T22:26:10.908Z,99992.72
2022-08-26T22:28:39.390Z,99991.25
2022-08-26T22:31:11.343Z,99992.72
2022-08-26T22:33:42.901Z,99987.03
2022-08-26T22:36:27.206Z,99991.25
2022-08-26T22:38:56.135Z,100003.47
2022-08-26T22:41:23.358Z,99998.31
2022-08-26T22:43:50.286Z,99989.69
2022-08-26T22:46:23.269Z,99992.91
2022-08-26T22:48:53.928Z,99992.50
2022-08-26T22:51:23.172Z,99987.13
2022-08-26T22:53:50.130Z,99994.06
2022-08-26T22:56:19.148Z,99999.38
2022-08-26T22:58:46.141Z,99999.19
2022-08-26T23:01:13.602Z,99999.50
2022-08-26T23:03:40.721Z,100002.84
2022-08-26T23:06:10.514Z,99996.25
2022-08-26T23:08:38.623Z,100008.22
2022-08-26T23:11:11.120Z,100006.50
2022-08-26T23:13:39.195Z,100003.38
2022-08-26T23:16:09.860Z,99999.94
2022-08-26T23:18:37.381Z,99999.72
2022-08-26T23:21:04.635Z,99998.56
2022-08-26T23:23:31.820Z,99994.66
2022-08-26T23:25:58.986Z,99994.25
2022-08-26T23:28:26.529Z,100001.69
2022-08-26T23:30:54.049Z,99998.34
2022-08-26T23:33:21.590Z,99996.38
2022-08-26T23:35:48.490Z,100001.94
2022-08-26T23:38:16.333Z,99994.50
2022-08-26T23:40:43.503Z,99996.09
2022-08-26T23:43:16.497Z,99994.09
2022-08-26T23:45:43.847Z,99988.03
2022-08-26T23:48:11.116Z,99992.44
2022-08-26T23:50:56.542Z,99992.94
2022-08-26T23:53:23.510Z,99985.72
2022-08-26T23:55:52.323Z,99985.41
2022-08-26T23:58:20.996Z,99982.94
